sensor_id;sensor_type;location;lat;lon;timestamp;P1;durP1;ratioP1;P2;durP2;ratioP2
32788;SDS011;19141;48.980;8.410;2024-02-21T05:22:32;9.18;;;3.42;;
32788;SDS011;19141;48.980;8.410;2024-02-21T05:24:57;6.72;;;3.88;;
32788;SDS011;19141;48.980;8.410;2024-02-21T05:27:23;10.98;;;4.07;;
32788;SDS011;19141;48.980;8.410;2024-02-21T05:29:48;11.30;;;4.88;;
32788;SDS011;19141;48.980;8.410;2024-02-21T05:32:14;7.03;;;3.60;;
32788;SDS011;19141;48.980;8.410;2024-02-21T05:34:39;8.50;;;4.05;;
32788;SDS011;19141;48.980;8.410;2024-02-21T05:37:05;4.80;;;2.83;;
32788;SDS011;19141;48.980;8.410;2024-02-21T05:39:30;9.60;;;3.85;;
32788;SDS011;19141;48.980;8.410;2024-02-21T05:41:55;7.55;;;4.03;;
32788;SDS011;19141;48.980;8.410;2024-02-21T05:44:21;10.70;;;4.15;;
32788;SDS011;19141;48.980;8.410;2024-02-21T05:46:47;10.13;;;3.33;;
32788;SDS011;19141;48.980;8.410;2024-02-21T05:49:13;7.25;;;3.72;;
32788;SDS011;19141;48.980;8.410;2024-02-21T05:51:38;6.38;;;3.42;;
32788;SDS011;19141;48.980;8.410;2024-02-21T05:54:03;7.85;;;3.72;;
32788;SDS011;19141;48.980;8.410;2024-02-21T05:56:29;8.48;;;3.63;;
32788;SDS011;19141;48.980;8.410;2024-02-21T05:58:57;10.05;;;3.35;;
32788;SDS011;19141;48.980;8.410;2024-02-21T06:01:23;6.68;;;3.70;;
32788;SDS011;19141;48.980;8.410;2024-02-21T06:03:48;8.60;;;4.18;;
32788;SDS011;19141;48.980;8.410;2024-02-21T06:06:13;6.72;;;3.60;;
32788;SDS011;19141;48.980;8.410;2024-02-21T06:08:42;8.52;;;3.55;;
32788;SDS011;19141;48.980;8.410;2024-02-21T06:11:07;10.50;;;4.18;;
32788;SDS011;19141;48.980;8.410;2024-02-21T06:13:33;7.78;;;4.18;;
32788;SDS011;19141;48.980;8.410;2024-02-21T06:15:58;10.38;;;4.55;;
32788;SDS011;19141;48.980;8.410;2024-02-21T06:18:23;11.20;;;5.80;;
32788;SDS011;19141;48.980;8.410;2024-02-21T06:20:49;7.05;;;3.53;;
32788;SDS011;19141;48.980;8.410;2024-02-21T06:23:15;8.75;;;3.80;;
32788;SDS011;19141;48.980;8.410;2024-02-21T06:25:44;9.40;;;3.90;;
32788;SDS011;19141;48.980;8.410;2024-02-21T06:28:09;8.68;;;3.47;;
32788;SDS011;19141;48.980;8.410;2024-02-21T06:30:35;8.65;;;4.32;;
32788;SDS011;19141;48.980;8.410;2024-02-21T06:33:01;6.05;;;2.65;;
32788;SDS011;19141;48.980;8.410;2024-02-21T06:35:27;10.65;;;3.92;;
32788;SDS011;19141;48.980;8.410;2024-02-21T06:37:53;10.43;;;3.17;;
32788;SDS011;19141;48.980;8.410;2024-02-21T06:40:20;7.97;;;2.80;;
32788;SDS011;19141;48.980;8.410;2024-02-21T06:42:47;6.75;;;3.00;;
32788;SDS011;19141;48.980;8.410;2024-02-21T06:45:12;7.25;;;2.67;;
32788;SDS011;19141;48.980;8.410;2024-02-21T06:47:37;8.80;;;3.03;;
32788;SDS011;19141;48.980;8.410;2024-02-21T06:50:03;7.32;;;3.17;;
32788;SDS011;19141;48.980;8.410;2024-02-21T06:52:29;6.47;;;3.28;;
32788;SDS011;19141;48.980;8.410;2024-02-21T06:54:54;5.03;;;3.25;;
32788;SDS011;19141;48.980;8.410;2024-02-21T06:57:20;9.85;;;3.28;;
32788;SDS011;19141;48.980;8.410;2024-02-21T06:59:45;8.02;;;3.40;;
32788;SDS011;19141;48.980;8.410;2024-02-21T07:02:10;6.93;;;3.15;;
32788;SDS011;19141;48.980;8.410;2024-02-21T07:04:36;8.00;;;2.90;;
32788;SDS011;19141;48.980;8.410;2024-02-21T07:07:01;9.40;;;3.50;;
32788;SDS011;19141;48.980;8.410;2024-02-21T07:09:27;6.57;;;2.75;;
32788;SDS011;19141;48.980;8.410;2024-02-21T07:11:53;6.13;;;2.92;;
32788;SDS011;19141;48.980;8.410;2024-02-21T07:14:19;7.47;;;3.88;;
32788;SDS011;19141;48.980;8.410;2024-02-21T07:16:44;9.02;;;3.75;;
32788;SDS011;19141;48.980;8.410;2024-02-21T07:19:10;7.38;;;3.00;;
32788;SDS011;19141;48.980;8.410;2024-02-21T07:21:35;5.95;;;3.28;;
32788;SDS011;19141;48.980;8.410;2024-02-21T07:24:03;8.18;;;2.97;;
32788;SDS011;19141;48.980;8.410;2024-02-21T07:26:29;6.40;;;3.15;;
32788;SDS011;19141;48.980;8.410;2024-02-21T07:28:56;4.38;;;2.78;;
32788;SDS011;19141;48.980;8.410;2024-02-21T07:31:21;6.90;;;2.60;;
32788;SDS011;19141;48.980;8.410;2024-02-21T07:33:46;6.82;;;2.97;;
32788;SDS011;19141;48.980;8.410;2024-02-21T07:36:12;4.93;;;2.30;;
32788;SDS011;19141;48.980;8.410;2024-02-21T07:38:37;7.10;;;2.88;;
32788;SDS011;19141;48.980;8.410;2024-02-21T07:41:03;5.43;;;2.85;;
32788;SDS011;19141;48.980;8.410;2024-02-21T07:43:29;4.30;;;2.25;;
32788;SDS011;19141;48.980;8.410;2024-02-21T07:45:55;5.80;;;2.45;;
32788;SDS011;19141;48.980;8.410;2024-02-21T07:48:20;5.70;;;2.90;;
32788;SDS011;19141;48.980;8.410;2024-02-21T07:50:49;7.10;;;2.63;;
32788;SDS011;19141;48.980;8.410;2024-02-21T07:53:15;8.07;;;2.70;;
32788;SDS011;19141;48.980;8.410;2024-02-21T07:55:40;3.58;;;2.40;;
32788;SDS011;19141;48.980;8.410;2024-02-21T07:58:06;4.00;;;2.28;;
32788;SDS011;19141;48.980;8.410;2024-02-21T08:00:31;6.22;;;2.33;;
32788;SDS011;19141;48.980;8.410;2024-02-21T08:02:57;4.35;;;2.60;;
32788;SDS011;19141;48.980;8.410;2024-02-21T08:05:22;4.32;;;2.33;;
32788;SDS011;19141;48.980;8.410;2024-02-21T08:07:48;6.47;;;2.50;;
32788;SDS011;19141;48.980;8.410;2024-02-21T08:10:13;6.47;;;2.72;;
32788;SDS011;19141;48.980;8.410;2024-02-21T08:12:39;6.60;;;2.55;;
32788;SDS011;19141;48.980;8.410;2024-02-21T08:15:04;4.30;;;2.13;;
32788;SDS011;19141;48.980;8.410;2024-02-21T08:17:30;4.70;;;2.63;;
32788;SDS011;19141;48.980;8.410;2024-02-21T08:19:56;7.50;;;2.58;;
32788;SDS011;19141;48.980;8.410;2024-02-21T08:22:21;5.40;;;2.28;;
32788;SDS011;19141;48.980;8.410;2024-02-21T08:24:46;6.53;;;2.20;;
32788;SDS011;19141;48.980;8.410;2024-02-21T08:27:12;5.50;;;2.30;;
32788;SDS011;19141;48.980;8.410;2024-02-21T08:29:37;7.55;;;2.40;;
32788;SDS011;19141;48.980;8.410;2024-02-21T08:32:03;4.63;;;2.47;;
32788;SDS011;19141;48.980;8.410;2024-02-21T08:34:28;5.47;;;2.40;;
32788;SDS011;19141;48.980;8.410;2024-02-21T08:36:55;3.63;;;2.47;;
32788;SDS011;19141;48.980;8.410;2024-02-21T08:39:21;5.07;;;2.60;;
32788;SDS011;19141;48.980;8.410;2024-02-21T08:41:46;6.40;;;2.50;;
32788;SDS011;19141;48.980;8.410;2024-02-21T08:44:11;5.80;;;2.63;;
32788;SDS011;19141;48.980;8.410;2024-02-21T08:46:37;8.00;;;3.03;;
32788;SDS011;19141;48.980;8.410;2024-02-21T08:49:05;5.95;;;2.58;;
32788;SDS011;19141;48.980;8.410;2024-02-21T08:51:31;4.63;;;2.20;;
32788;SDS011;19141;48.980;8.410;2024-02-21T08:53:56;6.97;;;2.67;;
32788;SDS011;19141;48.980;8.410;2024-02-21T08:56:23;4.07;;;2.37;;
32788;SDS011;19141;48.980;8.410;2024-02-21T08:58:49;4.15;;;2.40;;
32788;SDS011;19141;48.980;8.410;2024-02-21T09:01:15;4.60;;;2.80;;
32788;SDS011;19141;48.980;8.410;2024-02-21T09:03:40;9.15;;;2.58;;
32788;SDS011;19141;48.980;8.410;2024-02-21T09:06:06;7.25;;;2.75;;
32788;SDS011;19141;48.980;8.410;2024-02-21T09:08:32;4.70;;;2.58;;
32788;SDS011;19141;48.980;8.410;2024-02-21T09:10:58;5.07;;;2.40;;
32788;SDS011;19141;48.980;8.410;2024-02-21T09:13:24;4.93;;;2.63;;
32788;SDS011;19141;48.980;8.410;2024-02-21T09:15:50;8.35;;;2.75;;
32788;SDS011;19141;48.980;8.410;2024-02-21T09:18:15;6.28;;;2.70;;
32788;SDS011;19141;48.980;8.410;2024-02-21T09:20:42;8.60;;;2.90;;
32788;SDS011;19141;48.980;8.410;2024-02-21T09:23:07;6.97;;;2.70;;
32788;SDS011;19141;48.980;8.410;2024-02-21T09:25:33;6.53;;;2.60;;
32788;SDS011;19141;48.980;8.410;2024-02-21T09:27:59;6.07;;;2.38;;
32788;SDS011;19141;48.980;8.410;2024-02-21T09:30:26;3.88;;;2.13;;
32788;SDS011;19141;48.980;8.410;2024-02-21T09:32:51;7.55;;;2.80;;
32788;SDS011;19141;48.980;8.410;2024-02-21T09:35:17;4.10;;;2.40;;
32788;SDS011;19141;48.980;8.410;2024-02-21T09:37:43;5.07;;;1.98;;
32788;SDS011;19141;48.980;8.410;2024-02-21T09:40:08;5.28;;;2.00;;
32788;SDS011;19141;48.980;8.410;2024-02-21T09:45:07;5.60;;;2.33;;
32788;SDS011;19141;48.980;8.410;2024-02-21T09:47:55;6.15;;;2.08;;
32788;SDS011;19141;48.980;8.410;2024-02-21T09:50:24;5.35;;;2.13;;
32788;SDS011;19141;48.980;8.410;2024-02-21T09:52:50;3.85;;;1.88;;
32788;SDS011;19141;48.980;8.410;2024-02-21T09:55:17;6.15;;;2.30;;
32788;SDS011;19141;48.980;8.410;2024-02-21T09:57:43;5.50;;;2.15;;
32788;SDS011;19141;48.980;8.410;2024-02-21T10:00:09;4.30;;;2.10;;
32788;SDS011;19141;48.980;8.410;2024-02-21T10:02:39;5.30;;;2.10;;
32788;SDS011;19141;48.980;8.410;2024-02-21T10:05:04;6.95;;;2.30;;
32788;SDS011;19141;48.980;8.410;2024-02-21T10:07:33;7.38;;;1.95;;
32788;SDS011;19141;48.980;8.410;2024-02-21T10:10:05;4.93;;;2.55;;
32788;SDS011;19141;48.980;8.410;2024-02-21T10:12:31;6.65;;;2.40;;
32788;SDS011;19141;48.980;8.410;2024-02-21T10:15:02;4.75;;;1.98;;
32788;SDS011;19141;48.980;8.410;2024-02-21T10:17:29;4.47;;;2.08;;
32788;SDS011;19141;48.980;8.410;2024-02-21T10:19:54;4.75;;;2.20;;
32788;SDS011;19141;48.980;8.410;2024-02-21T10:22:20;5.80;;;2.10;;
32788;SDS011;19141;48.980;8.410;2024-02-21T10:24:50;3.65;;;1.60;;
32788;SDS011;19141;48.980;8.410;2024-02-21T10:27:15;5.20;;;2.15;;
32788;SDS011;19141;48.980;8.410;2024-02-21T10:29:41;2.88;;;1.50;;
32788;SDS011;19141;48.980;8.410;2024-02-21T10:32:07;4.07;;;2.22;;
32788;SDS011;19141;48.980;8.410;2024-02-21T10:34:34;4.50;;;1.90;;
32788;SDS011;19141;48.980;8.410;2024-02-21T10:37:01;4.30;;;1.40;;
32788;SDS011;19141;48.980;8.410;2024-02-21T10:39:31;6.63;;;1.80;;
32788;SDS011;19141;48.980;8.410;2024-02-21T10:41:58;2.25;;;1.73;;
32788;SDS011;19141;48.980;8.410;2024-02-21T10:44:37;6.47;;;1.60;;
32788;SDS011;19141;48.980;8.410;2024-02-21T10:49:35;2.28;;;1.58;;
32788;SDS011;19141;48.980;8.410;2024-02-21T10:52:14;5.03;;;2.10;;
32788;SDS011;19141;48.980;8.410;2024-02-21T10:57:18;4.28;;;1.83;;
32788;SDS011;19141;48.980;8.410;2024-02-21T10:59:45;3.92;;;1.60;;
32788;SDS011;19141;48.980;8.410;2024-02-21T11:02:13;7.32;;;1.65;;
32788;SDS011;19141;48.980;8.410;2024-02-21T11:04:39;3.90;;;2.20;;
32788;SDS011;19141;48.980;8.410;2024-02-21T11:07:06;2.95;;;1.40;;
32788;SDS011;19141;48.980;8.410;2024-02-21T11:09:32;2.95;;;1.27;;
32788;SDS011;19141;48.980;8.410;2024-02-21T11:11:58;4.60;;;1.80;;
32788;SDS011;19141;48.980;8.410;2024-02-21T11:14:28;3.88;;;1.70;;
32788;SDS011;19141;48.980;8.410;2024-02-21T11:16:57;3.10;;;1.40;;
32788;SDS011;19141;48.980;8.410;2024-02-21T11:19:27;4.35;;;1.75;;
32788;SDS011;19141;48.980;8.410;2024-02-21T11:21:56;3.88;;;1.40;;
32788;SDS011;19141;48.980;8.410;2024-02-21T11:24:29;1.67;;;1.20;;
32788;SDS011;19141;48.980;8.410;2024-02-21T11:26:56;3.03;;;1.70;;
32788;SDS011;19141;48.980;8.410;2024-02-21T11:29:25;3.45;;;1.40;;
32788;SDS011;19141;48.980;8.410;2024-02-21T11:31:51;3.47;;;1.17;;
32788;SDS011;19141;48.980;8.410;2024-02-21T11:34:18;4.05;;;1.42;;
32788;SDS011;19141;48.980;8.410;2024-02-21T11:36:51;3.90;;;1.65;;
32788;SDS011;19141;48.980;8.410;2024-02-21T11:39:26;2.50;;;1.35;;
32788;SDS011;19141;48.980;8.410;2024-02-21T11:44:31;2.90;;;1.50;;
32788;SDS011;19141;48.980;8.410;2024-02-21T11:46:57;5.35;;;1.42;;
32788;SDS011;19141;48.980;8.410;2024-02-21T11:49:28;4.03;;;1.48;;
32788;SDS011;19141;48.980;8.410;2024-02-21T11:52:00;3.38;;;1.50;;
32788;SDS011;19141;48.980;8.410;2024-02-21T11:54:29;3.35;;;1.50;;
32788;SDS011;19141;48.980;8.410;2024-02-21T11:56:54;4.22;;;1.80;;
32788;SDS011;19141;48.980;8.410;2024-02-21T11:59:19;3.53;;;1.35;;
32788;SDS011;19141;48.980;8.410;2024-02-21T12:01:45;1.95;;;1.25;;
32788;SDS011;19141;48.980;8.410;2024-02-21T12:04:12;6.65;;;1.90;;
32788;SDS011;19141;48.980;8.410;2024-02-21T12:06:38;3.60;;;1.60;;
32788;SDS011;19141;48.980;8.410;2024-02-21T12:11:33;3.70;;;1.58;;
32788;SDS011;19141;48.980;8.410;2024-02-21T12:13:59;3.00;;;1.50;;
32788;SDS011;19141;48.980;8.410;2024-02-21T12:16:29;1.98;;;1.10;;
32788;SDS011;19141;48.980;8.410;2024-02-21T12:18:56;3.42;;;1.30;;
32788;SDS011;19141;48.980;8.410;2024-02-21T12:21:31;3.75;;;1.60;;
32788;SDS011;19141;48.980;8.410;2024-02-21T12:24:23;3.78;;;1.50;;
32788;SDS011;19141;48.980;8.410;2024-02-21T12:26:48;4.87;;;1.67;;
32788;SDS011;19141;48.980;8.410;2024-02-21T12:29:14;2.08;;;1.20;;
32788;SDS011;19141;48.980;8.410;2024-02-21T12:31:40;3.58;;;1.40;;
32788;SDS011;19141;48.980;8.410;2024-02-21T12:34:06;2.47;;;1.50;;
32788;SDS011;19141;48.980;8.410;2024-02-21T12:36:35;3.10;;;1.30;;
32788;SDS011;19141;48.980;8.410;2024-02-21T12:39:06;2.55;;;1.58;;
32788;SDS011;19141;48.980;8.410;2024-02-21T12:41:32;3.25;;;1.40;;
32788;SDS011;19141;48.980;8.410;2024-02-21T12:43:58;4.68;;;1.35;;
32788;SDS011;19141;48.980;8.410;2024-02-21T12:46:23;3.78;;;1.70;;
32788;SDS011;19141;48.980;8.410;2024-02-21T12:48:49;3.50;;;1.33;;
32788;SDS011;19141;48.980;8.410;2024-02-21T12:51:15;3.88;;;1.65;;
32788;SDS011;19141;48.980;8.410;2024-02-21T12:53:41;4.68;;;1.40;;
32788;SDS011;19141;48.980;8.410;2024-02-21T12:56:06;5.32;;;1.73;;
32788;SDS011;19141;48.980;8.410;2024-02-21T12:58:32;3.15;;;1.65;;
32788;SDS011;19141;48.980;8.410;2024-02-21T13:00:58;4.10;;;1.80;;
32788;SDS011;19141;48.980;8.410;2024-02-21T13:03:23;3.85;;;1.65;;
32788;SDS011;19141;48.980;8.410;2024-02-21T13:05:49;2.03;;;1.20;;
32788;SDS011;19141;48.980;8.410;2024-02-21T13:08:14;3.00;;;1.50;;
32788;SDS011;19141;48.980;8.410;2024-02-21T13:10:39;3.67;;;1.80;;
32788;SDS011;19141;48.980;8.410;2024-02-21T13:13:05;6.63;;;1.73;;
32788;SDS011;19141;48.980;8.410;2024-02-21T13:15:30;2.70;;;1.50;;
32788;SDS011;19141;48.980;8.410;2024-02-21T13:17:56;2.97;;;1.40;;
32788;SDS011;19141;48.980;8.410;2024-02-21T13:20:25;4.55;;;1.40;;
32788;SDS011;19141;48.980;8.410;2024-02-21T13:22:52;3.60;;;2.30;;
32788;SDS011;19141;48.980;8.410;2024-02-21T13:25:17;3.03;;;1.40;;
32788;SDS011;19141;48.980;8.410;2024-02-21T13:27:46;1.95;;;1.10;;
32788;SDS011;19141;48.980;8.410;2024-02-21T13:30:13;2.58;;;1.23;;
32788;SDS011;19141;48.980;8.410;2024-02-21T13:32:41;3.15;;;1.58;;
32788;SDS011;19141;48.980;8.410;2024-02-21T13:35:11;2.53;;;1.33;;
32788;SDS011;19141;48.980;8.410;2024-02-21T13:37:37;4.15;;;1.70;;
32788;SDS011;19141;48.980;8.410;2024-02-21T13:40:04;4.15;;;1.67;;
32788;SDS011;19141;48.980;8.410;2024-02-21T13:42:30;3.53;;;1.60;;
32788;SDS011;19141;48.980;8.410;2024-02-21T13:44:55;2.58;;;1.48;;
32788;SDS011;19141;48.980;8.410;2024-02-21T13:47:20;2.53;;;1.38;;
32788;SDS011;19141;48.980;8.410;2024-02-21T13:49:46;3.25;;;1.35;;
32788;SDS011;19141;48.980;8.410;2024-02-21T13:52:12;3.83;;;1.45;;
32788;SDS011;19141;48.980;8.410;2024-02-21T13:54:38;2.63;;;1.25;;
32788;SDS011;19141;48.980;8.410;2024-02-21T13:57:03;3.42;;;1.60;;
32788;SDS011;19141;48.980;8.410;2024-02-21T13:59:29;1.98;;;1.30;;
32788;SDS011;19141;48.980;8.410;2024-02-21T14:01:55;3.70;;;1.40;;
32788;SDS011;19141;48.980;8.410;2024-02-21T14:04:21;2.88;;;1.60;;
32788;SDS011;19141;48.980;8.410;2024-02-21T14:06:46;2.97;;;1.42;;
32788;SDS011;19141;48.980;8.410;2024-02-21T14:09:12;3.88;;;1.33;;
32788;SDS011;19141;48.980;8.410;2024-02-21T14:11:38;6.43;;;2.00;;
32788;SDS011;19141;48.980;8.410;2024-02-21T14:14:05;3.55;;;1.55;;
32788;SDS011;19141;48.980;8.410;2024-02-21T14:16:30;4.35;;;1.67;;
32788;SDS011;19141;48.980;8.410;2024-02-21T14:18:57;2.55;;;1.98;;
32788;SDS011;19141;48.980;8.410;2024-02-21T14:21:22;4.65;;;1.70;;
32788;SDS011;19141;48.980;8.410;2024-02-21T14:23:48;2.55;;;1.48;;
32788;SDS011;19141;48.980;8.410;2024-02-21T14:26:13;3.45;;;1.63;;
32788;SDS011;19141;48.980;8.410;2024-02-21T14:28:39;2.65;;;1.50;;
32788;SDS011;19141;48.980;8.410;2024-02-21T14:31:05;2.58;;;1.38;;
32788;SDS011;19141;48.980;8.410;2024-02-21T14:33:34;3.13;;;1.83;;
32788;SDS011;19141;48.980;8.410;2024-02-21T14:36:00;4.47;;;1.90;;
32788;SDS011;19141;48.980;8.410;2024-02-21T14:38:25;3.28;;;1.33;;
32788;SDS011;19141;48.980;8.410;2024-02-21T14:40:51;4.57;;;1.70;;
32788;SDS011;19141;48.980;8.410;2024-02-21T14:43:16;2.67;;;1.50;;
32788;SDS011;19141;48.980;8.410;2024-02-21T14:45:43;3.40;;;1.65;;
32788;SDS011;19141;48.980;8.410;2024-02-21T14:48:09;4.15;;;1.80;;
32788;SDS011;19141;48.980;8.410;2024-02-21T14:50:34;3.60;;;1.73;;
32788;SDS011;19141;48.980;8.410;2024-02-21T14:52:59;2.10;;;1.50;;
32788;SDS011;19141;48.980;8.410;2024-02-21T14:55:25;3.92;;;1.70;;
32788;SDS011;19141;48.980;8.410;2024-02-21T14:57:50;4.40;;;1.90;;
32788;SDS011;19141;48.980;8.410;2024-02-21T15:00:16;3.95;;;1.60;;
32788;SDS011;19141;48.980;8.410;2024-02-21T15:02:41;5.20;;;2.05;;
32788;SDS011;19141;48.980;8.410;2024-02-21T15:05:08;5.32;;;1.63;;
32788;SDS011;19141;48.980;8.410;2024-02-21T15:07:34;3.28;;;1.58;;
32788;SDS011;19141;48.980;8.410;2024-02-21T15:09:59;3.03;;;1.67;;
32788;SDS011;19141;48.980;8.410;2024-02-21T15:12:25;4.18;;;1.65;;
32788;SDS011;19141;48.980;8.410;2024-02-21T15:14:50;2.75;;;1.70;;
32788;SDS011;19141;48.980;8.410;2024-02-21T15:17:16;2.75;;;1.50;;
32788;SDS011;19141;48.980;8.410;2024-02-21T15:19:43;3.40;;;1.92;;
32788;SDS011;19141;48.980;8.410;2024-02-21T15:22:12;3.33;;;1.98;;
32788;SDS011;19141;48.980;8.410;2024-02-21T15:24:41;6.22;;;2.30;;
32788;SDS011;19141;48.980;8.410;2024-02-21T15:27:07;4.57;;;1.90;;
32788;SDS011;19141;48.980;8.410;2024-02-21T15:29:34;3.85;;;1.70;;
32788;SDS011;19141;48.980;8.410;2024-02-21T15:32:01;3.33;;;1.60;;
32788;SDS011;19141;48.980;8.410;2024-02-21T15:34:27;5.07;;;2.15;;
32788;SDS011;19141;48.980;8.410;2024-02-21T15:36:52;4.28;;;1.70;;
32788;SDS011;19141;48.980;8.410;2024-02-21T15:39:18;4.15;;;1.63;;
32788;SDS011;19141;48.980;8.410;2024-02-21T15:41:43;2.55;;;1.70;;
32788;SDS011;19141;48.980;8.410;2024-02-21T15:44:08;4.10;;;1.73;;
32788;SDS011;19141;48.980;8.410;2024-02-21T15:46:34;4.22;;;1.63;;
32788;SDS011;19141;48.980;8.410;2024-02-21T15:49:01;3.17;;;1.92;;
32788;SDS011;19141;48.980;8.410;2024-02-21T15:51:28;3.75;;;1.40;;
32788;SDS011;19141;48.980;8.410;2024-02-21T15:53:55;4.75;;;1.67;;
32788;SDS011;19141;48.980;8.410;2024-02-21T15:56:21;6.90;;;1.60;;
32788;SDS011;19141;48.980;8.410;2024-02-21T15:58:46;5.15;;;1.92;;
32788;SDS011;19141;48.980;8.410;2024-02-21T16:01:12;4.03;;;1.60;;
32788;SDS011;19141;48.980;8.410;2024-02-21T16:03:37;2.97;;;1.70;;
32788;SDS011;19141;48.980;8.410;2024-02-21T16:06:03;3.80;;;1.77;;
32788;SDS011;19141;48.980;8.410;2024-02-21T16:08:29;3.35;;;1.77;;
32788;SDS011;19141;48.980;8.410;2024-02-21T16:10:54;3.80;;;1.80;;
32788;SDS011;19141;48.980;8.410;2024-02-21T16:13:21;4.22;;;1.77;;
32788;SDS011;19141;48.980;8.410;2024-02-21T16:15:46;4.22;;;1.80;;
32788;SDS011;19141;48.980;8.410;2024-02-21T16:18:13;3.47;;;2.00;;
32788;SDS011;19141;48.980;8.410;2024-02-21T16:20:40;4.85;;;1.67;;
32788;SDS011;19141;48.980;8.410;2024-02-21T16:23:05;3.50;;;1.58;;
32788;SDS011;19141;48.980;8.410;2024-02-21T16:25:32;3.83;;;1.60;;
32788;SDS011;19141;48.980;8.410;2024-02-21T16:27:58;3.60;;;2.20;;
32788;SDS011;19141;48.980;8.410;2024-02-21T16:30:25;3.43;;;1.73;;
32788;SDS011;19141;48.980;8.410;2024-02-21T16:32:51;10.57;;;1.80;;
32788;SDS011;19141;48.980;8.410;2024-02-21T16:35:17;4.50;;;1.63;;
32788;SDS011;19141;48.980;8.410;2024-02-21T16:37:43;4.50;;;1.58;;
32788;SDS011;19141;48.980;8.410;2024-02-21T16:40:09;4.90;;;1.80;;
32788;SDS011;19141;48.980;8.410;2024-02-21T16:42:35;4.88;;;1.90;;
32788;SDS011;19141;48.980;8.410;2024-02-21T16:45:00;4.22;;;1.80;;
32788;SDS011;19141;48.980;8.410;2024-02-21T16:47:26;2.42;;;1.63;;
32788;SDS011;19141;48.980;8.410;2024-02-21T16:49:51;4.68;;;1.73;;
32788;SDS011;19141;48.980;8.410;2024-02-21T16:52:17;4.70;;;1.80;;
32788;SDS011;19141;48.980;8.410;2024-02-21T16:54:42;3.20;;;2.00;;
32788;SDS011;19141;48.980;8.410;2024-02-21T16:57:08;4.88;;;2.17;;
32788;SDS011;19141;48.980;8.410;2024-02-21T16:59:34;4.32;;;1.90;;
32788;SDS011;19141;48.980;8.410;2024-02-21T17:02:02;4.65;;;1.98;;
32788;SDS011;19141;48.980;8.410;2024-02-21T17:04:29;5.80;;;1.92;;
32788;SDS011;19141;48.980;8.410;2024-02-21T17:06:54;4.78;;;2.15;;
32788;SDS011;19141;48.980;8.410;2024-02-21T17:09:20;4.70;;;1.88;;
32788;SDS011;19141;48.980;8.410;2024-02-21T17:11:45;3.00;;;1.90;;
32788;SDS011;19141;48.980;8.410;2024-02-21T17:14:11;3.08;;;2.15;;
32788;SDS011;19141;48.980;8.410;2024-02-21T17:16:37;5.35;;;2.20;;
32788;SDS011;19141;48.980;8.410;2024-02-21T17:19:03;3.78;;;2.10;;
32788;SDS011;19141;48.980;8.410;2024-02-21T17:21:30;6.80;;;1.90;;
32788;SDS011;19141;48.980;8.410;2024-02-21T17:23:56;4.45;;;2.22;;
32788;SDS011;19141;48.980;8.410;2024-02-21T17:26:22;4.38;;;2.47;;
32788;SDS011;19141;48.980;8.410;2024-02-21T17:28:49;4.22;;;2.78;;
32788;SDS011;19141;48.980;8.410;2024-02-21T17:31:16;3.23;;;2.47;;
32788;SDS011;19141;48.980;8.410;2024-02-21T17:33:42;3.67;;;2.22;;
32788;SDS011;19141;48.980;8.410;2024-02-21T17:36:07;4.43;;;2.05;;
32788;SDS011;19141;48.980;8.410;2024-02-21T17:38:36;4.65;;;2.88;;
32788;SDS011;19141;48.980;8.410;2024-02-21T17:41:01;4.15;;;2.25;;
32788;SDS011;19141;48.980;8.410;2024-02-21T17:43:27;4.65;;;2.50;;
32788;SDS011;19141;48.980;8.410;2024-02-21T17:45:54;5.72;;;2.40;;
32788;SDS011;19141;48.980;8.410;2024-02-21T17:48:21;6.78;;;3.90;;
32788;SDS011;19141;48.980;8.410;2024-02-21T17:50:47;5.45;;;2.92;;
32788;SDS011;19141;48.980;8.410;2024-02-21T17:53:13;4.47;;;2.80;;
32788;SDS011;19141;48.980;8.410;2024-02-21T17:55:38;4.85;;;3.22;;
32788;SDS011;19141;48.980;8.410;2024-02-21T17:58:03;7.68;;;3.58;;
32788;SDS011;19141;48.980;8.410;2024-02-21T18:00:29;5.70;;;2.97;;
32788;SDS011;19141;48.980;8.410;2024-02-21T18:02:57;5.97;;;2.92;;
32788;SDS011;19141;48.980;8.410;2024-02-21T18:05:23;3.88;;;2.45;;
32788;SDS011;19141;48.980;8.410;2024-02-21T18:07:49;5.07;;;3.08;;
32788;SDS011;19141;48.980;8.410;2024-02-21T18:10:15;5.07;;;2.75;;
32788;SDS011;19141;48.980;8.410;2024-02-21T18:12:40;4.47;;;2.53;;
32788;SDS011;19141;48.980;8.410;2024-02-21T18:15:06;6.18;;;2.92;;
32788;SDS011;19141;48.980;8.410;2024-02-21T18:17:32;5.75;;;2.67;;
32788;SDS011;19141;48.980;8.410;2024-02-21T18:19:58;7.82;;;3.08;;
32788;SDS011;19141;48.980;8.410;2024-02-21T18:22:24;3.53;;;1.95;;
32788;SDS011;19141;48.980;8.410;2024-02-21T18:24:51;7.18;;;3.53;;
32788;SDS011;19141;48.980;8.410;2024-02-21T18:27:16;6.22;;;3.63;;
32788;SDS011;19141;48.980;8.410;2024-02-21T18:29:41;4.75;;;2.85;;
32788;SDS011;19141;48.980;8.410;2024-02-21T18:32:07;3.88;;;2.47;;
32788;SDS011;19141;48.980;8.410;2024-02-21T18:34:35;5.10;;;2.33;;
32788;SDS011;19141;48.980;8.410;2024-02-21T18:37:02;4.05;;;2.08;;
32788;SDS011;19141;48.980;8.410;2024-02-21T18:39:29;5.55;;;2.15;;
32788;SDS011;19141;48.980;8.410;2024-02-21T18:41:54;3.97;;;2.03;;
32788;SDS011;19141;48.980;8.410;2024-02-21T18:44:20;3.35;;;2.15;;
32788;SDS011;19141;48.980;8.410;2024-02-21T18:46:45;4.75;;;2.10;;
32788;SDS011;19141;48.980;8.410;2024-02-21T18:49:11;6.38;;;2.08;;
32788;SDS011;19141;48.980;8.410;2024-02-21T18:51:36;4.53;;;2.63;;
32788;SDS011;19141;48.980;8.410;2024-02-21T18:54:02;19.90;;;9.93;;
32788;SDS011;19141;48.980;8.410;2024-02-21T18:56:28;10.57;;;5.75;;
32788;SDS011;19141;48.980;8.410;2024-02-21T18:58:54;14.95;;;8.57;;
32788;SDS011;19141;48.980;8.410;2024-02-21T19:01:21;7.18;;;2.97;;
32788;SDS011;19141;48.980;8.410;2024-02-21T19:03:47;9.27;;;3.70;;
32788;SDS011;19141;48.980;8.410;2024-02-21T19:06:13;8.65;;;5.10;;
32788;SDS011;19141;48.980;8.410;2024-02-21T19:08:40;13.50;;;7.18;;
32788;SDS011;19141;48.980;8.410;2024-02-21T19:11:06;4.72;;;2.95;;
32788;SDS011;19141;48.980;8.410;2024-02-21T19:13:31;8.48;;;4.28;;
32788;SDS011;19141;48.980;8.410;2024-02-21T19:15:57;10.05;;;4.95;;
32788;SDS011;19141;48.980;8.410;2024-02-21T19:18:22;8.38;;;3.80;;
32788;SDS011;19141;48.980;8.410;2024-02-21T19:20:47;7.13;;;3.35;;
32788;SDS011;19141;48.980;8.410;2024-02-21T19:23:13;8.02;;;2.90;;
32788;SDS011;19141;48.980;8.410;2024-02-21T19:25:38;5.93;;;3.25;;
32788;SDS011;19141;48.980;8.410;2024-02-21T19:28:07;4.32;;;2.70;;
32788;SDS011;19141;48.980;8.410;2024-02-21T19:30:33;5.30;;;4.03;;
32788;SDS011;19141;48.980;8.410;2024-02-21T19:32:59;6.50;;;3.13;;
32788;SDS011;19141;48.980;8.410;2024-02-21T19:35:24;6.18;;;4.15;;
32788;SDS011;19141;48.980;8.410;2024-02-21T19:37:50;4.68;;;3.03;;
32788;SDS011;19141;48.980;8.410;2024-02-21T19:40:15;6.43;;;3.38;;
32788;SDS011;19141;48.980;8.410;2024-02-21T19:42:42;6.07;;;3.63;;
32788;SDS011;19141;48.980;8.410;2024-02-21T19:45:08;6.90;;;2.95;;
32788;SDS011;19141;48.980;8.410;2024-02-21T19:47:33;5.60;;;3.35;;
32788;SDS011;19141;48.980;8.410;2024-02-21T19:50:00;5.85;;;3.67;;
32788;SDS011;19141;48.980;8.410;2024-02-21T19:52:26;6.10;;;3.53;;
32788;SDS011;19141;48.980;8.410;2024-02-21T19:54:51;5.47;;;3.72;;
32788;SDS011;19141;48.980;8.410;2024-02-21T19:57:19;5.45;;;3.30;;
32788;SDS011;19141;48.980;8.410;2024-02-21T19:59:47;5.60;;;2.70;;
32788;SDS011;19141;48.980;8.410;2024-02-21T20:02:13;4.90;;;3.20;;
32788;SDS011;19141;48.980;8.410;2024-02-21T20:04:38;4.03;;;3.03;;
32788;SDS011;19141;48.980;8.410;2024-02-21T20:07:04;7.72;;;3.00;;
32788;SDS011;19141;48.980;8.410;2024-02-21T20:09:30;3.33;;;2.53;;
32788;SDS011;19141;48.980;8.410;2024-02-21T20:11:55;3.63;;;2.72;;
32788;SDS011;19141;48.980;8.410;2024-02-21T20:14:23;5.43;;;2.83;;
32788;SDS011;19141;48.980;8.410;2024-02-21T20:16:48;3.65;;;2.28;;